Pratapolis, Brazil
Current Conditions -  °F | °C
As of 5:00 PM on Thursday 27 Nov 2014 (Local Time) from SBRP Reporting Station
Scattered Clouds Scattered Clouds  
Wind Chill: 86°   Ceiling: Unl
Heat Index: 89°   Visibility: 6mi
Dew Point: 68°   Wind: 10mph
Humidity: 55%   Direction: 240°WSW
Pressure: 29.8"   Gusts: NA
Location:  20.74°S, 46.86°W
Report Text: SBRP 271900Z 24009KT 9999 SCT035 30/20 Q1009
Loading
Personal Weather Stations






























Interactive Weather Map New forecast layout! Learn more

10-Day Weather Forecast

Advertisements
Track Severe Weather on mobile